Latest Weather Observations for Trangie

IDN60801

Issued at 5:05 pm EDT Friday 30 January 2015 (issued every 30 minutes, with the page automatically refreshed every 10 minutes)

About weather observations | Map of weather stations | Latest weather observations for NSW | Other Formats
Station Details ID: 051049 Name: TRANGIE RESEARCH STATION AWS Lat: -31.99 Lon: 147.95 Height: 215.0 m
Data from the previous 72 hours. | See also: Recent months at Trangie
Date/Time
EDT
Temp
°C
App
Temp
°C
Dew
Point
Rel
Hum
%
Delta-T
°C
Wind Press
QNH
hPa
Press
MSL
hPa
Rain
since 9 am
mm
Dir
 
Spd
km/h
Gust
km/h
Spd
kts
Gust
kts
30/05:00pm 29.0 23.9 3.1 19 13.1 SW 19 32 10 17 1006.5 1005.3 0.0
30/04:30pm 29.1 22.9 2.4 18 13.4 SW 24 39 13 21 1006.8 1005.6 0.0
30/04:23pm 29.2 22.3 2.5 18 13.4 SW 28 52 15 28 1006.9 1005.7 0.0
30/04:00pm 29.2 24.3 3.9 20 13.0 SW 19 35 10 19 1007.0 1005.8 0.0
30/03:30pm 28.8 22.8 3.6 20 12.8 SW 24 39 13 21 1007.3 1006.1 0.0
30/03:00pm 29.8 25.5 5.1 21 13.0 SW 17 32 9 17 1007.7 1006.5 0.0
30/02:30pm 28.8 23.7 4.3 21 12.7 W 20 32 11 17 1008.1 1006.9 0.0
30/02:00pm 27.9 21.9 3.6 21 12.3 WSW 24 39 13 21 1008.6 1007.3 0.0
30/01:30pm 27.6 22.1 4.0 22 12.0 WSW 22 35 12 19 1009.0 1007.7 0.0
30/01:00pm 27.4 22.0 4.5 23 11.8 SW 22 37 12 20 1009.3 1008.0 0.0
30/12:30pm 27.1 22.3 5.4 25 11.3 W 20 30 11 16 1009.7 1008.4 0.0
30/12:00pm 26.3 21.5 5.8 27 10.7 WSW 20 30 11 16 1010.0 1008.7 0.0
30/11:30am 25.5 20.8 5.1 27 10.4 SSW 19 28 10 15 1010.4 1009.2 0.0
30/11:00am 25.0 21.2 5.7 29 10.0 SSW 15 22 8 12 1010.6 1009.4 0.0
30/10:30am 24.3 21.7 7.9 35 8.8 SW 11 19 6 10 1010.7 1009.5 0.0
30/10:00am 23.0 22.0 8.7 40 7.7 W 4 7 2 4 1010.9 1009.7 0.0
30/09:30am 21.4 20.4 9.0 45 6.7 ENE 4 7 2 4 1011.0 1009.8 0.0
30/09:00am 19.5 18.3 9.4 52 5.4 NE 6 9 3 5 1011.1 1009.9 0.0
30/08:30am 18.2 17.0 10.3 60 4.3 NE 7 11 4 6 1011.0 1009.8 0.0
30/08:00am 16.7 15.3 11.0 69 3.1 NE 9 13 5 7 1011.0 1009.8 0.0
30/07:30am 14.8 13.5 10.0 73 2.5 ENE 7 11 4 6 1010.6 1009.4 0.0
30/07:00am 11.8 10.1 8.3 79 1.7 SE 7 9 4 5 1010.3 1009.1 0.0
30/06:30am 12.1 10.2 7.6 74 2.2 SSE 7 9 4 5 1009.8 1008.5 0.0
30/06:00am 12.5 10.9 8.0 74 2.2 SSE 6 9 3 5 1009.5 1008.2 0.0
30/05:30am 13.4 11.8 8.7 73 2.4 S 7 15 4 8 1009.4 1008.1 0.0
30/05:00am 11.3 9.6 8.5 83 1.4 SW 7 9 4 5 1009.2 1007.9 0.0
30/04:30am 12.0 10.3 8.3 78 1.8 SW 7 9 4 5 1009.1 1007.8 0.0
30/04:00am 12.6 10.9 8.3 75 2.2 WSW 7 9 4 5 1009.2 1007.9 0.0
30/03:30am 13.1 12.4 10.1 82 1.6 WSW 4 7 2 4 1009.3 1008.0 0.0
30/03:00am 13.6 13.7 10.0 79 1.9 CALM 0 0 0 0 1009.6 1008.3 0.0
30/02:30am 13.5 13.6 10.1 80 1.8 CALM 0 0 0 0 1009.8 1008.5 0.0
30/02:00am 14.5 14.2 8.5 67 3.1 CALM 0 0 0 0 1010.0 1008.7 0.0
30/01:30am 15.4 15.2 8.9 65 3.4 CALM 0 0 0 0 1010.2 1008.9 0.0
30/01:00am 15.5 14.8 7.0 57 4.2 CALM 0 0 0 0 1010.3 1009.1 0.0
30/12:30am 15.8 15.1 6.8 55 4.5 CALM 0 0 0 0 1010.6 1009.4 0.0
30/12:00am 15.6 15.6 9.7 68 3.1 CALM 0 0 0 0 1010.8 1009.6 0.0
 
Date/Time
EDT
Temp
°C
App
Temp
°C
Dew
Point
Rel
Hum
%
Delta-T
°C
Wind Press
QNH
hPa
Press
MSL
hPa
Rain
since 9 am
mm
Dir
 
Spd
km/h
Gust
km/h
Spd
kts
Gust
kts
29/11:30pm 17.3 16.8 7.9 54 4.8 CALM 0 0 0 0 1010.9 1009.7 0.0
29/11:00pm 18.1 17.1 7.2 49 5.5 SSE 2 7 1 4 1011.0 1009.8 0.0
29/10:30pm 18.3 17.3 7.4 49 5.6 SSE 2 7 1 4 1011.2 1010.0 0.0
29/10:00pm 19.1 17.2 7.5 47 6.0 SSE 7 9 4 5 1011.2 1010.0 0.0
29/09:30pm 19.4 17.4 7.2 45 6.3 SSE 7 9 4 5 1011.1 1009.9 0.0
29/09:00pm 21.5 19.0 6.6 38 7.7 SSE 9 11 5 6 1010.9 1009.7 0.0
29/08:30pm 23.2 19.8 6.0 33 8.8 SSE 13 20 7 11 1010.7 1009.5 0.0
29/08:00pm 24.4 20.7 6.2 31 9.5 S 15 24 8 13 1010.4 1009.2 0.0
29/07:30pm 25.4 21.3 6.1 29 10.1 S 17 28 9 15 1010.2 1008.9 0.0
29/07:00pm 26.2 21.9 6.8 29 10.3 S 19 26 10 14 1010.0 1008.7 0.0
29/06:30pm 26.4 22.0 6.4 28 10.5 S 19 32 10 17 1009.7 1008.4 0.0
29/06:00pm 25.7 21.3 7.3 31 9.8 SSW 20 30 11 16 1009.8 1008.5 0.0
29/05:30pm 27.0 21.5 7.5 29 10.5 SSW 26 37 14 20 1010.0 1008.7 0.0
29/05:00pm 25.8 21.2 8.3 33 9.5 S 22 35 12 19 1010.3 1009.1 0.0
29/04:30pm 26.3 21.5 8.8 33 9.6 SSW 24 41 13 22 1010.5 1009.3 0.0
29/04:00pm 27.1 22.5 9.5 33 9.8 SW 24 41 13 22 1010.7 1009.5 0.0
29/03:30pm 26.9 22.2 9.3 33 9.8 SSW 24 35 13 19 1010.9 1009.7 0.0
29/03:00pm 26.5 22.9 9.8 35 9.3 S 19 32 10 17 1011.1 1009.9 0.0
29/02:30pm 26.9 22.6 9.3 33 9.8 SSW 22 33 12 18 1011.3 1010.1 0.0
29/02:00pm 26.2 23.0 10.0 36 9.1 SSW 17 24 9 13 1011.7 1010.5 0.0
29/01:30pm 25.1 21.9 8.6 35 9.0 SSW 15 35 8 19 1012.2 1011.0 0.0
29/01:00pm 25.9 23.2 8.8 34 9.4 S 13 26 7 14 1012.6 1011.4 0.0
29/12:30pm 25.2 22.8 8.7 35 9.0 SE 11 20 6 11 1013.0 1011.8 0.0
29/12:00pm 24.0 21.6 8.8 38 8.2 SSE 11 17 6 9 1013.6 1012.3 0.0
29/11:30am 23.1 20.8 9.1 41 7.6 S 11 17 6 9 1013.9 1012.6 0.0
29/11:00am 22.6 20.9 9.7 44 7.1 E 9 17 5 9 1013.8 1012.5 0.0
29/10:30am 21.6 19.2 10.1 48 6.3 E 13 17 7 9 1013.9 1012.6 0.0
29/10:00am 20.9 18.9 10.1 50 5.9 ENE 11 20 6 11 1014.0 1012.7 0.0
29/09:30am 20.0 17.8 10.7 55 5.1 ENE 13 20 7 11 1014.0 1012.7 0.0
29/09:00am 19.1 17.1 11.4 61 4.3 E 13 22 7 12 1013.9 1012.6 0.0
29/08:30am 17.6 15.6 11.6 68 3.3 ESE 13 20 7 11 1014.0 1012.7 0.0
29/08:00am 16.8 15.9 12.5 76 2.4 ESE 9 13 5 7 1013.9 1012.6 0.0
29/07:30am 15.1 14.3 12.8 86 1.3 ESE 9 13 5 7 1013.5 1012.2 0.0
29/07:00am 13.0 12.3 12.1 94 0.5 ESE 7 11 4 6 1012.9 1011.7 0.0
29/06:30am 11.9 10.9 11.0 94 0.5 SE 7 9 4 5 1012.9 1011.7 0.0
29/06:00am 12.1 11.7 11.2 94 0.5 E 4 7 2 4 1012.5 1011.3 0.0
29/05:30am 12.2 11.4 10.9 92 0.7 SE 6 7 3 4 1012.5 1011.3 0.0
29/05:00am 12.8 13.3 11.7 93 0.6 CALM 0 6 0 3 1012.3 1011.1 0.0
29/04:30am 13.0 12.8 11.7 92 0.7 ESE 4 7 2 4 1012.3 1011.1 0.0
29/04:00am 13.3 13.2 12.2 93 0.6 NE 4 7 2 4 1012.3 1011.1 0.0
29/03:30am 13.6 13.2 12.5 93 0.6 ENE 6 7 3 4 1012.3 1011.1 0.0
29/03:00am 13.8 13.9 12.7 93 0.6 SE 4 7 2 4 1012.6 1011.4 0.0
29/02:30am 14.1 13.8 12.8 92 0.7 E 6 7 3 4 1012.5 1011.3 0.0
29/02:00am 14.6 14.8 13.0 90 0.9 ESE 4 7 2 4 1012.8 1011.6 0.0
29/01:30am 15.0 14.9 13.4 90 0.9 E 6 9 3 5 1012.9 1011.7 0.0
29/01:00am 15.2 15.1 13.2 88 1.1 NE 6 9 3 5 1012.9 1011.7 0.0
29/12:30am 15.9 15.8 13.4 85 1.4 NE 6 9 3 5 1013.0 1011.8 0.0
29/12:00am 16.6 16.0 13.5 82 1.8 NE 9 13 5 7 1013.0 1011.8 0.0
 
Date/Time
EDT
Temp
°C
App
Temp
°C
Dew
Point
Rel
Hum
%
Delta-T
°C
Wind Press
QNH
hPa
Press
MSL
hPa
Rain
since 9 am
mm
Dir
 
Spd
km/h
Gust
km/h
Spd
kts
Gust
kts
28/11:30pm 17.3 16.8 13.8 80 2.0 NE 9 17 5 9 1013.0 1011.8 0.0
28/11:00pm 17.4 17.4 14.1 81 1.9 NNE 7 15 4 8 1012.9 1011.7 0.0
28/10:30pm 17.9 17.5 14.2 79 2.1 NNE 9 13 5 7 1012.9 1011.7 0.0
28/10:00pm 18.4 18.1 14.3 77 2.4 NNE 9 13 5 7 1012.5 1011.3 0.0
28/09:30pm 18.8 18.6 14.7 77 2.4 NE 9 13 5 7 1012.3 1011.1 0.0
28/09:00pm 19.4 18.7 14.2 72 3.0 NE 11 17 6 9 1012.1 1010.9 0.0
28/08:30pm 20.0 18.4 13.9 68 3.5 NE 15 24 8 13 1011.9 1010.7 0.0
28/08:00pm 20.9 18.4 13.6 63 4.2 ENE 19 32 10 17 1012.0 1010.8 0.0
28/07:30pm 21.6 17.6 13.0 58 5.0 ENE 26 41 14 22 1011.6 1010.4 0.0
28/07:00pm 22.2 19.6 13.8 59 4.9 ENE 20 39 11 21 1011.3 1010.1 0.0
28/06:30pm 21.9 18.4 13.3 58 5.0 ENE 24 41 13 22 1010.9 1009.7 0.0
28/06:00pm 21.3 18.0 14.0 63 4.3 E 24 39 13 21 1010.8 1009.6 0.0
28/05:30pm 23.7 20.3 13.6 53 5.9 E 24 43 13 23 1010.5 1009.3 0.0
28/05:00pm 24.3 20.6 13.8 52 6.2 ENE 26 43 14 23 1010.3 1009.1 0.0
28/04:30pm 24.6 21.8 14.4 53 6.1 E 22 33 12 18 1010.3 1009.1 0.0
28/04:00pm 25.0 22.4 13.9 50 6.6 ESE 20 35 11 19 1010.3 1009.1 0.0
28/03:30pm 25.6 22.1 13.5 47 7.2 E 24 43 13 23 1010.3 1009.1 0.0
28/03:00pm 25.3 22.3 13.8 49 6.8 E 22 41 12 22 1010.1 1008.8 0.0
28/02:30pm 25.2 22.3 14.0 49 6.7 ESE 22 43 12 23 1010.3 1009.1 0.0
28/02:00pm 25.4 22.6 14.2 50 6.7 E 22 37 12 20 1010.2 1008.9 0.0
28/01:30pm 25.4 23.0 14.5 51 6.6 E 20 32 11 17 1010.3 1009.1 0.0
28/01:00pm 25.6 23.4 15.0 52 6.4 E 20 33 11 18 1010.4 1009.2 0.0
28/12:30pm 24.7 22.5 14.5 53 6.1 E 19 30 10 16 1010.6 1009.4 0.0
28/12:00pm 24.5 22.3 14.3 53 6.1 E 19 30 10 16 1010.8 1009.6 0.0
28/11:30am 24.2 22.0 14.9 56 5.6 ESE 20 35 11 19 1011.1 1009.9 0.0
28/11:00am 24.3 22.2 15.2 57 5.5 E 20 35 11 19 1011.3 1010.1 0.0
28/10:30am 23.3 21.1 14.8 59 5.1 E 20 35 11 19 1011.4 1010.2 0.0
28/10:00am 22.8 20.7 15.1 62 4.6 E 20 33 11 18 1011.3 1010.1 0.0
28/09:30am 21.2 19.5 14.6 66 3.9 E 17 30 9 16 1011.1 1009.9 0.0
28/09:00am 20.4 18.9 14.3 68 3.6 E 15 24 8 13 1011.1 1009.9 17.0
28/08:30am 19.8 17.6 14.4 71 3.2 E 19 26 10 14 1010.8 1009.6 17.0
28/08:00am 19.3 18.7 14.6 74 2.8 ESE 11 20 6 11 1010.5 1009.3 17.0
28/07:30am 18.0 17.2 14.1 78 2.3 ESE 11 17 6 9 1010.2 1008.9 17.0
28/07:00am 16.7 16.4 14.5 87 1.3 ESE 9 15 5 8 1009.7 1008.4 17.0
28/06:30am 16.1 16.1 14.3 89 1.0 ESE 7 11 4 6 1009.5 1008.2 17.0
28/06:00am 16.4 16.5 14.4 88 1.2 ESE 7 13 4 7 1009.2 1007.9 17.0
28/05:30am 16.4 16.2 14.6 89 1.0 ESE 9 13 5 7 1009.0 1007.7 17.0
28/05:00am 15.8 16.0 14.3 91 0.9 SE 6 11 3 6 1008.9 1007.6 17.0
28/04:30am 16.0 16.1 14.5 91 0.9 SSE 7 11 4 6 1008.7 1007.4 17.0
28/04:00am 16.9 16.7 14.7 87 1.3 ESE 9 17 5 9 1008.5 1007.2 17.0
28/03:30am 17.0 16.1 14.8 87 1.3 ESE 13 19 7 10 1008.3 1007.1 17.0
28/03:00am 17.3 16.8 14.9 86 1.4 ESE 11 17 6 9 1008.6 1007.3 17.0
28/02:30am 17.3 16.8 14.9 86 1.4 E 11 19 6 10 1008.7 1007.4 17.0
28/02:00am 17.5 17.1 15.1 86 1.4 E 11 15 6 8 1009.1 1007.8 17.0
28/01:30am 17.6 17.1 15.0 85 1.5 E 11 15 6 8 1009.3 1008.0 17.0
28/01:00am 17.8 17.0 15.1 84 1.6 ESE 13 20 7 11 1009.5 1008.2 17.0
28/12:30am 18.1 17.3 15.2 83 1.7 E 13 20 7 11 1009.5 1008.2 17.0
28/12:00am 18.6 17.0 15.1 80 2.1 E 17 26 9 14 1009.4 1008.1 17.0
 
Date/Time
EDT
Temp
°C
App
Temp
°C
Dew
Point
Rel
Hum
%
Delta-T
°C
Wind Press
QNH
hPa
Press
MSL
hPa
Rain
since 9 am
mm
Dir
 
Spd
km/h
Gust
km/h
Spd
kts
Gust
kts
27/11:30pm 18.8 17.7 15.3 80 2.1 ESE 15 20 8 11 1009.8 1008.5 17.0
27/11:00pm 19.0 18.3 15.5 80 2.1 ESE 13 24 7 13 1009.6 1008.3 17.0
27/10:30pm 19.3 18.3 15.6 79 2.2 ESE 15 24 8 13 1009.3 1008.0 17.0
27/10:00pm 19.5 18.1 15.6 78 2.3 E 17 26 9 14 1009.0 1007.7 17.0
27/09:30pm 20.0 18.7 15.8 77 2.5 E 17 26 9 14 1008.8 1007.5 17.0
27/09:00pm 20.4 19.2 16.0 76 2.7 ESE 17 30 9 16 1008.7 1007.4 17.0
27/08:30pm 20.7 18.9 15.9 74 2.9 ESE 20 32 11 17 1008.3 1007.1 17.0
27/08:00pm 21.6 19.8 15.4 68 3.7 ESE 19 32 10 17 1007.9 1006.7 17.0
27/07:30pm 22.6 20.7 15.7 65 4.2 E 20 32 11 17 1007.5 1006.3 17.0
27/07:00pm 23.2 21.1 16.3 65 4.2 E 22 37 12 20 1006.6 1005.4 17.0
27/06:30pm 24.2 23.0 17.4 65 4.3 E 20 37 11 20 1006.8 1005.6 17.0
27/06:00pm 24.4 23.0 16.9 63 4.7 E 20 33 11 18 1006.6 1005.4 17.0
27/05:30pm 24.0 23.3 18.2 70 3.7 ENE 19 30 10 16 1006.3 1005.1 17.0

Other Formats:

Comma delimited format used in spreadsheet applications
http://www.bom.gov.au/fwo/IDN60801/IDN60801.95710.axf

JavaScript Object Notation format (JSON) in row-major order
http://www.bom.gov.au/fwo/IDN60801/IDN60801.95710.json